McBride, Missouri
Current Conditions -  °F | °C
As of 12:15 AM on Wednesday 22 Oct 2014 (Local Time) from KSAR Reporting Station
Clear Clear  
Wind Chill: 44°   Ceiling: Unl
Heat Index: 47°   Visibility: 10mi
Dew Point: 41°   Wind: 6mph
Humidity: 80%   Direction: 70°ENE
Pressure: 30.21"   Gusts: NA
Location:  37.83°N, 89.84°W
Report Text: KSAR 220515Z AUTO 07005KT 10SM CLR 08/05 A3021 RMK AO2 T00820050
Loading
Personal Weather Stations






























Interactive Weather Map
Tropical Storm Tracking
New forecast layout! Learn more

10-Day Weather Forecast

Advertisements
Track Severe Weather on mobile